Time,TemperatureF,DewpointF,PressureIn,WindDirection,WindDirectionDegrees,WindSpeedMPH,WindSpeedGustMPH,Humidity,HourlyPrecipIn,Conditions,Clouds,dailyrainin,SoftwareType,DateUTC
2013-01-10 00:00:00,66.4,65.5,30.07,NE,52,1.0,9.0,97,0.00,,,2.02,Wunderground v.1.15,2013-01-10 06:00:00,
2013-01-10 00:05:00,66.4,65.5,30.06,ENE,67,1.0,9.0,97,0.00,,,2.02,Wunderground v.1.15,2013-01-10 06:05:00,
2013-01-10 00:10:00,66.4,65.5,30.06,East,81,1.0,1.0,97,0.00,,,2.02,Wunderground v.1.15,2013-01-10 06:10:00,
2013-01-10 00:15:00,66.5,65.6,30.06,East,90,1.0,2.0,97,0.00,,,2.02,Wunderground v.1.15,2013-01-10 06:15:00,
2013-01-10 00:20:00,66.5,65.6,30.06,East,86,1.0,1.0,97,0.00,,,0.00,Wunderground v.1.15,2013-01-10 06:20:00,
2013-01-10 00:24:00,66.6,65.7,30.05,ENE,68,1.0,-999.0,97,0.00,,,0.59,Wunderground v.1.15,2013-01-10 06:24:00,
2013-01-10 00:25:00,66.5,65.6,30.06,NE,49,1.0,1.0,97,0.00,,,0.00,Wunderground v.1.15,2013-01-10 06:25:00,
2013-01-10 00:29:00,66.6,65.7,30.05,ENE,68,1.0,-999.0,97,0.00,,,0.59,Wunderground v.1.15,2013-01-10 06:29:00,
2013-01-10 00:30:00,66.5,65.6,30.06,East,97,1.0,1.0,97,0.00,,,0.00,Wunderground v.1.15,2013-01-10 06:30:00,
2013-01-10 00:34:00,66.6,65.7,30.05,ENE,68,1.0,-999.0,97,0.00,,,0.59,Wunderground v.1.15,2013-01-10 06:34:00,
2013-01-10 00:35:00,66.5,65.6,30.05,ENE,71,1.0,7.0,97,0.00,,,0.00,Wunderground v.1.15,2013-01-10 06:35:00,
2013-01-10 00:39:00,66.6,65.7,30.05,ENE,68,1.0,-999.0,97,0.00,,,0.59,Wunderground v.1.15,2013-01-10 06:39:00,
2013-01-10 00:40:00,66.5,65.6,30.05,ENE,59,0.0,7.0,97,0.00,,,0.00,Wunderground v.1.15,2013-01-10 06:40:00,
2013-01-10 00:44:00,66.6,65.7,30.05,ENE,68,1.0,-999.0,97,0.00,,,0.59,Wunderground v.1.15,2013-01-10 06:44:00,
2013-01-10 00:45:00,66.5,65.6,30.05,NE,48,1.0,7.0,97,0.00,,,0.00,Wunderground v.1.15,2013-01-10 06:45:00,
2013-01-10 00:49:00,66.9,66.0,30.05,East,90,1.0,-999.0,97,0.00,,,0.59,Wunderground v.1.15,2013-01-10 06:49:00,
2013-01-10 00:50:00,66.6,65.7,30.05,NNE,30,2.0,7.0,97,0.00,,,0.00,Wunderground v.1.15,2013-01-10 06:50:00,
2013-01-10 00:54:00,66.9,66.0,30.05,East,90,1.0,-999.0,97,0.00,,,0.59,Wunderground v.1.15,2013-01-10 06:54:00,
2013-01-10 00:55:00,66.6,65.7,30.05,NE,53,2.0,7.0,97,0.00,,,0.00,Wunderground v.1.15,2013-01-10 06:55:00,
2013-01-10 00:59:00,66.9,66.0,30.05,East,90,1.0,-999.0,97,0.00,,,0.59,Wunderground v.1.15,2013-01-10 06:59:00,
2013-01-10 01:00:00,66.7,65.8,30.05,ENE,65,1.0,7.0,97,0.00,,,0.00,Wunderground v.1.15,2013-01-10 07:00:00,
2013-01-10 01:04:00,66.9,66.0,30.05,East,90,1.0,-999.0,97,0.00,,,0.59,Wunderground v.1.15,2013-01-10 07:04:00,
2013-01-10 01:05:00,66.7,65.8,30.05,ENE,69,1.0,7.0,97,0.00,,,0.00,Wunderground v.1.15,2013-01-10 07:05:00,
2013-01-10 01:09:00,66.9,66.0,30.05,East,90,1.0,-999.0,97,0.00,,,0.59,Wunderground v.1.15,2013-01-10 07:09:00,
2013-01-10 01:10:00,66.8,65.9,30.05,SE,125,1.0,1.0,97,0.00,,,0.00,Wunderground v.1.15,2013-01-10 07:10:00,
2013-01-10 01:14:00,66.9,66.0,30.05,East,90,1.0,-999.0,97,0.00,,,0.59,Wunderground v.1.15,2013-01-10 07:14:00,
2013-01-10 01:15:00,66.8,65.9,30.05,East,94,2.0,2.0,97,0.00,,,0.00,Wunderground v.1.15,2013-01-10 07:15:00,
2013-01-10 01:19:00,67.3,66.4,30.05,ENE,68,2.0,-999.0,97,0.00,,,0.59,Wunderground v.1.15,2013-01-10 07:19:00,
2013-01-10 01:20:00,66.9,66.0,30.05,NE,42,2.0,2.0,97,0.00,,,0.00,Wunderground v.1.15,2013-01-10 07:20:00,
2013-01-10 01:24:00,67.3,66.4,30.05,ENE,68,2.0,-999.0,97,0.00,,,0.59,Wunderground v.1.15,2013-01-10 07:24:00,
2013-01-10 01:25:00,67.0,66.1,30.05,ENE,67,2.0,7.0,97,0.00,,,0.00,Wunderground v.1.15,2013-01-10 07:25:00,
2013-01-10 01:29:00,67.3,66.4,30.05,ENE,68,2.0,-999.0,97,0.00,,,0.59,Wunderground v.1.15,2013-01-10 07:29:00,
2013-01-10 01:30:00,67.1,66.2,30.05,ENE,70,2.0,7.0,97,0.00,,,0.00,Wunderground v.1.15,2013-01-10 07:30:00,
2013-01-10 01:34:00,67.3,66.4,30.05,ENE,68,2.0,-999.0,97,0.00,,,0.59,Wunderground v.1.15,2013-01-10 07:34:00,
2013-01-10 01:35:00,67.1,66.2,30.05,ESE,113,2.0,7.0,97,0.00,,,0.00,Wunderground v.1.15,2013-01-10 07:35:00,
2013-01-10 01:39:00,67.3,66.4,30.05,ENE,68,2.0,-999.0,97,0.00,,,0.59,Wunderground v.1.15,2013-01-10 07:39:00,
2013-01-10 01:40:00,67.2,66.3,30.05,NNE,33,2.0,7.0,97,0.00,,,0.00,Wunderground v.1.15,2013-01-10 07:40:00,
2013-01-10 01:44:00,67.3,66.4,30.05,ENE,68,2.0,-999.0,97,0.00,,,0.59,Wunderground v.1.15,2013-01-10 07:44:00,
2013-01-10 01:45:00,67.2,66.3,30.05,SE,128,2.0,7.0,97,0.00,,,0.00,Wunderground v.1.15,2013-01-10 07:45:00,
2013-01-10 01:49:00,67.5,66.6,30.04,ESE,113,2.0,-999.0,97,0.00,,,0.59,Wunderground v.1.15,2013-01-10 07:49:00,
2013-01-10 01:50:00,67.3,66.4,30.05,ESE,115,2.0,7.0,97,0.00,,,0.00,Wunderground v.1.15,2013-01-10 07:50:00,
2013-01-10 01:54:00,67.5,66.6,30.04,ESE,113,2.0,-999.0,97,0.00,,,0.59,Wunderground v.1.15,2013-01-10 07:54:00,
2013-01-10 01:55:00,67.4,66.5,30.05,SSE,156,2.0,7.0,97,0.00,,,0.00,Wunderground v.1.15,2013-01-10 07:55:00,
2013-01-10 01:59:00,67.5,66.6,30.04,ESE,113,2.0,-999.0,97,0.00,,,0.59,Wunderground v.1.15,2013-01-10 07:59:00,
2013-01-10 02:00:00,67.4,66.5,30.05,SE,126,2.0,7.0,97,0.00,,,0.00,Wunderground v.1.15,2013-01-10 08:00:00,
2013-01-10 02:04:00,67.5,66.6,30.04,ESE,113,2.0,-999.0,97,0.00,,,0.59,Wunderground v.1.15,2013-01-10 08:04:00,
2013-01-10 02:05:00,67.4,66.5,30.04,SE,129,2.0,7.0,97,0.00,,,0.00,Wunderground v.1.15,2013-01-10 08:05:00,
2013-01-10 02:09:00,67.5,66.6,30.04,ESE,113,2.0,-999.0,97,0.00,,,0.59,Wunderground v.1.15,2013-01-10 08:09:00,
2013-01-10 02:10:00,67.4,66.5,30.04,ESE,117,2.0,7.0,97,0.00,,,0.00,Wunderground v.1.15,2013-01-10 08:10:00,
2013-01-10 02:14:00,67.5,66.6,30.04,ESE,113,2.0,-999.0,97,0.00,,,0.59,Wunderground v.1.15,2013-01-10 08:14:00,
2013-01-10 02:15:00,67.4,66.5,30.04,ESE,106,2.0,7.0,97,0.00,,,0.00,Wunderground v.1.15,2013-01-10 08:15:00,
2013-01-10 02:19:00,67.6,66.7,30.02,ESE,113,2.0,-999.0,97,0.01,,,0.59,Wunderground v.1.15,2013-01-10 08:19:00,
2013-01-10 02:20:00,67.5,66.6,30.04,ESE,119,2.0,7.0,97,0.00,,,0.00,Wunderground v.1.15,2013-01-10 08:20:00,
2013-01-10 02:24:00,67.6,66.7,30.02,ESE,113,2.0,-999.0,97,0.01,,,0.59,Wunderground v.1.15,2013-01-10 08:24:00,
2013-01-10 02:25:00,67.5,66.6,30.04,NE,42,2.0,7.0,97,0.00,,,0.00,Wunderground v.1.15,2013-01-10 08:25:00,
2013-01-10 02:29:00,67.6,66.7,30.02,ESE,113,2.0,-999.0,97,0.01,,,0.59,Wunderground v.1.15,2013-01-10 08:29:00,
2013-01-10 02:30:00,67.5,66.6,30.04,SSE,155,2.0,7.0,97,0.00,,,0.00,Wunderground v.1.15,2013-01-10 08:30:00,
2013-01-10 02:34:00,67.6,66.7,30.02,ESE,113,2.0,-999.0,97,0.01,,,0.59,Wunderground v.1.15,2013-01-10 08:34:00,
2013-01-10 02:35:00,67.5,66.6,30.03,East,82,2.0,7.0,97,0.00,,,0.00,Wunderground v.1.15,2013-01-10 08:35:00,
2013-01-10 02:39:00,67.6,66.7,30.02,ESE,113,2.0,-999.0,97,0.01,,,0.59,Wunderground v.1.15,2013-01-10 08:39:00,
2013-01-10 02:40:00,67.5,66.6,30.03,NE,46,2.0,7.0,97,0.00,,,0.00,Wunderground v.1.15,2013-01-10 08:40:00,
2013-01-10 02:44:00,67.6,66.7,30.02,ESE,113,2.0,-999.0,97,0.01,,,0.59,Wunderground v.1.15,2013-01-10 08:44:00,
2013-01-10 02:45:00,67.5,66.6,30.03,East,91,3.0,7.0,97,0.00,,,0.01,Wunderground v.1.15,2013-01-10 08:45:00,
2013-01-10 02:49:00,67.6,66.7,30.00,East,90,2.0,-999.0,97,0.01,,,0.59,Wunderground v.1.15,2013-01-10 08:49:00,
2013-01-10 02:54:00,67.6,66.7,30.00,East,90,2.0,-999.0,97,0.01,,,0.59,Wunderground v.1.15,2013-01-10 08:54:00,
2013-01-10 02:55:00,67.6,66.7,30.02,ESE,111,2.0,7.0,97,0.00,,,0.01,Wunderground v.1.15,2013-01-10 08:55:00,
2013-01-10 02:59:00,67.6,66.7,30.00,East,90,2.0,-999.0,97,0.01,,,0.59,Wunderground v.1.15,2013-01-10 08:59:00,
2013-01-10 03:00:00,67.5,66.6,30.02,SE,125,3.0,3.0,97,0.00,,,0.01,Wunderground v.1.15,2013-01-10 09:00:00,
2013-01-10 03:04:00,67.6,66.7,30.00,East,90,2.0,-999.0,97,0.01,,,0.59,Wunderground v.1.15,2013-01-10 09:04:00,
2013-01-10 03:05:00,67.5,66.6,30.00,ENE,69,3.0,7.0,97,0.00,,,0.01,Wunderground v.1.15,2013-01-10 09:05:00,
2013-01-10 03:09:00,67.6,66.7,30.00,East,90,2.0,-999.0,97,0.01,,,0.59,Wunderground v.1.15,2013-01-10 09:09:00,
2013-01-10 03:10:00,67.5,66.6,30.00,SSE,152,2.0,7.0,97,0.00,,,0.01,Wunderground v.1.15,2013-01-10 09:10:00,
2013-01-10 03:14:00,67.6,66.7,30.00,East,90,2.0,-999.0,97,0.01,,,0.59,Wunderground v.1.15,2013-01-10 09:14:00,
2013-01-10 03:15:00,67.6,66.7,30.00,South,188,3.0,7.0,97,0.00,,,0.01,Wunderground v.1.15,2013-01-10 09:15:00,
2013-01-10 03:19:00,67.6,66.7,30.00,SE,135,3.0,-999.0,97,0.00,,,0.59,Wunderground v.1.15,2013-01-10 09:19:00,
2013-01-10 03:20:00,67.6,66.7,30.00,East,83,2.0,7.0,97,0.00,,,0.01,Wunderground v.1.15,2013-01-10 09:20:00,
2013-01-10 03:24:00,67.6,66.7,30.00,SE,135,3.0,-999.0,97,0.00,,,0.59,Wunderground v.1.15,2013-01-10 09:24:00,
2013-01-10 03:25:00,67.6,66.7,30.00,ENE,70,3.0,7.0,97,0.00,,,0.01,Wunderground v.1.15,2013-01-10 09:25:00,
2013-01-10 03:29:00,67.6,66.7,30.00,SE,135,3.0,-999.0,97,0.00,,,0.59,Wunderground v.1.15,2013-01-10 09:29:00,
2013-01-10 03:30:00,67.6,66.7,30.00,ESE,109,3.0,7.0,97,0.00,,,0.01,Wunderground v.1.15,2013-01-10 09:30:00,
2013-01-10 03:34:00,67.6,66.7,30.00,SE,135,3.0,-999.0,97,0.00,,,0.59,Wunderground v.1.15,2013-01-10 09:34:00,
2013-01-10 03:35:00,67.6,66.7,30.01,ESE,105,3.0,7.0,97,0.00,,,0.01,Wunderground v.1.15,2013-01-10 09:35:00,
2013-01-10 03:39:00,67.6,66.7,30.00,SE,135,3.0,-999.0,97,0.00,,,0.59,Wunderground v.1.15,2013-01-10 09:39:00,
2013-01-10 03:40:00,67.6,66.7,30.01,ESE,122,3.0,3.0,97,0.00,,,0.01,Wunderground v.1.15,2013-01-10 09:40:00,
2013-01-10 03:44:00,67.6,66.7,30.00,SE,135,3.0,-999.0,97,0.00,,,0.59,Wunderground v.1.15,2013-01-10 09:44:00,
2013-01-10 03:45:00,67.6,66.7,30.01,SE,130,2.0,7.0,97,0.00,,,0.01,Wunderground v.1.15,2013-01-10 09:45:00,
2013-01-10 03:49:00,67.5,66.6,30.00,ESE,113,2.0,-999.0,97,0.00,,,0.59,Wunderground v.1.15,2013-01-10 09:49:00,
2013-01-10 03:50:00,67.6,66.7,30.00,SE,126,3.0,3.0,97,0.00,,,0.01,Wunderground v.1.15,2013-01-10 09:50:00,
2013-01-10 03:54:00,67.5,66.6,30.00,ESE,113,2.0,-999.0,97,0.00,,,0.59,Wunderground v.1.15,2013-01-10 09:54:00,
2013-01-10 03:55:00,67.6,66.7,30.00,ESE,109,2.0,4.0,97,0.00,,,0.01,Wunderground v.1.15,2013-01-10 09:55:00,
2013-01-10 03:59:00,67.5,66.6,30.00,ESE,113,2.0,-999.0,97,0.00,,,0.59,Wunderground v.1.15,2013-01-10 09:59:00,
2013-01-10 04:00:00,67.5,66.6,30.00,East,99,2.0,2.0,97,0.00,,,0.01,Wunderground v.1.15,2013-01-10 10:00:00,
2013-01-10 04:04:00,67.5,66.6,30.00,ESE,113,2.0,-999.0,97,0.00,,,0.59,Wunderground v.1.15,2013-01-10 10:04:00,
2013-01-10 04:05:00,67.6,66.7,30.01,SE,140,2.0,7.0,97,0.00,,,0.01,Wunderground v.1.15,2013-01-10 10:05:00,
2013-01-10 04:09:00,67.5,66.6,30.00,ESE,113,2.0,-999.0,97,0.00,,,0.59,Wunderground v.1.15,2013-01-10 10:09:00,
2013-01-10 04:10:00,67.6,66.7,30.01,East,83,2.0,7.0,97,0.00,,,0.01,Wunderground v.1.15,2013-01-10 10:10:00,
2013-01-10 04:14:00,67.5,66.6,30.00,ESE,113,2.0,-999.0,97,0.00,,,0.59,Wunderground v.1.15,2013-01-10 10:14:00,
2013-01-10 04:15:00,67.6,66.7,30.01,ESE,109,2.0,7.0,97,0.00,,,0.01,Wunderground v.1.15,2013-01-10 10:15:00,
2013-01-10 04:19:00,67.5,66.3,29.99,ESE,113,2.0,-999.0,96,0.00,,,0.59,Wunderground v.1.15,2013-01-10 10:19:00,
2013-01-10 04:20:00,67.5,66.6,30.00,ESE,103,2.0,2.0,97,0.00,,,0.01,Wunderground v.1.15,2013-01-10 10:20:00,
2013-01-10 04:24:00,67.5,66.3,29.99,ESE,113,2.0,-999.0,96,0.00,,,0.59,Wunderground v.1.15,2013-01-10 10:24:00,
2013-01-10 04:25:00,67.5,66.6,30.00,East,87,2.0,7.0,97,0.00,,,0.01,Wunderground v.1.15,2013-01-10 10:25:00,
2013-01-10 04:29:00,67.5,66.3,29.99,ESE,113,2.0,-999.0,96,0.00,,,0.59,Wunderground v.1.15,2013-01-10 10:29:00,
2013-01-10 04:30:00,67.5,66.3,30.00,SSE,153,2.0,2.0,96,0.00,,,0.01,Wunderground v.1.15,2013-01-10 10:30:00,
2013-01-10 04:34:00,67.5,66.3,29.99,ESE,113,2.0,-999.0,96,0.00,,,0.59,Wunderground v.1.15,2013-01-10 10:34:00,
2013-01-10 04:35:00,67.5,66.3,30.00,ESE,106,2.0,7.0,96,0.00,,,0.01,Wunderground v.1.15,2013-01-10 10:35:00,
2013-01-10 04:39:00,67.5,66.3,29.99,ESE,113,2.0,-999.0,96,0.00,,,0.59,Wunderground v.1.15,2013-01-10 10:39:00,
2013-01-10 04:40:00,67.4,66.2,30.00,ESE,121,2.0,2.0,96,0.00,,,0.01,Wunderground v.1.15,2013-01-10 10:40:00,
2013-01-10 04:44:00,67.5,66.3,29.99,ESE,113,2.0,-999.0,96,0.00,,,0.59,Wunderground v.1.15,2013-01-10 10:44:00,
2013-01-10 04:45:00,67.4,66.2,30.00,ESE,119,2.0,4.0,96,0.00,,,0.01,Wunderground v.1.15,2013-01-10 10:45:00,
2013-01-10 04:49:00,67.4,66.2,29.98,East,90,1.0,-999.0,96,0.00,,,0.59,Wunderground v.1.15,2013-01-10 10:49:00,
2013-01-10 04:50:00,67.5,66.3,29.99,ESE,107,2.0,7.0,96,0.00,,,0.01,Wunderground v.1.15,2013-01-10 10:50:00,
2013-01-10 04:54:00,67.4,66.2,29.98,East,90,1.0,-999.0,96,0.00,,,0.59,Wunderground v.1.15,2013-01-10 10:54:00,
2013-01-10 04:55:00,67.4,66.2,29.99,ESE,115,2.0,7.0,96,0.00,,,0.01,Wunderground v.1.15,2013-01-10 10:55:00,
2013-01-10 04:59:00,67.4,66.2,29.98,East,90,1.0,-999.0,96,0.00,,,0.59,Wunderground v.1.15,2013-01-10 10:59:00,
2013-01-10 05:00:00,67.4,66.2,29.99,ENE,76,2.0,2.0,96,0.00,,,0.01,Wunderground v.1.15,2013-01-10 11:00:00,
2013-01-10 05:04:00,67.4,66.2,29.98,East,90,1.0,-999.0,96,0.00,,,0.59,Wunderground v.1.15,2013-01-10 11:04:00,
2013-01-10 05:05:00,67.4,66.2,29.98,ESE,107,1.0,3.0,96,0.00,,,0.01,Wunderground v.1.15,2013-01-10 11:05:00,
2013-01-10 05:09:00,67.4,66.2,29.98,East,90,1.0,-999.0,96,0.00,,,0.59,Wunderground v.1.15,2013-01-10 11:09:00,
2013-01-10 05:10:00,67.4,66.2,29.98,East,94,1.0,1.0,96,0.00,,,0.01,Wunderground v.1.15,2013-01-10 11:10:00,
2013-01-10 05:14:00,67.4,66.2,29.98,East,90,1.0,-999.0,96,0.00,,,0.59,Wunderground v.1.15,2013-01-10 11:14:00,
2013-01-10 05:15:00,67.4,66.2,29.98,North,10,1.0,1.0,96,0.00,,,0.01,Wunderground v.1.15,2013-01-10 11:15:00,
2013-01-10 05:19:00,67.3,66.1,29.98,East,90,1.0,-999.0,96,0.00,,,0.59,Wunderground v.1.15,2013-01-10 11:19:00,
2013-01-10 05:20:00,67.4,66.2,29.98,East,91,1.0,1.0,96,0.00,,,0.01,Wunderground v.1.15,2013-01-10 11:20:00,
2013-01-10 05:24:00,67.3,66.1,29.98,East,90,1.0,-999.0,96,0.00,,,0.59,Wunderground v.1.15,2013-01-10 11:24:00,
2013-01-10 05:25:00,67.4,66.2,29.98,NNE,26,1.0,1.0,96,0.00,,,0.01,Wunderground v.1.15,2013-01-10 11:25:00,
2013-01-10 05:29:00,67.3,66.1,29.98,East,90,1.0,-999.0,96,0.00,,,0.59,Wunderground v.1.15,2013-01-10 11:29:00,
2013-01-10 05:30:00,67.4,66.2,29.98,ESE,109,2.0,2.0,96,0.00,,,0.01,Wunderground v.1.15,2013-01-10 11:30:00,
2013-01-10 05:34:00,67.3,66.1,29.98,East,90,1.0,-999.0,96,0.00,,,0.59,Wunderground v.1.15,2013-01-10 11:34:00,
2013-01-10 05:35:00,67.4,66.2,29.97,NE,50,2.0,14.0,96,0.00,,,0.01,Wunderground v.1.15,2013-01-10 11:35:00,
2013-01-10 05:39:00,67.3,66.1,29.98,East,90,1.0,-999.0,96,0.00,,,0.59,Wunderground v.1.15,2013-01-10 11:39:00,
2013-01-10 05:40:00,67.3,66.1,29.97,SE,134,1.0,1.0,96,0.00,,,0.01,Wunderground v.1.15,2013-01-10 11:40:00,
2013-01-10 05:44:00,67.3,66.1,29.98,East,90,1.0,-999.0,96,0.00,,,0.59,Wunderground v.1.15,2013-01-10 11:44:00,
2013-01-10 05:45:00,67.3,66.1,29.97,SSE,151,1.0,14.0,96,0.00,,,0.01,Wunderground v.1.15,2013-01-10 11:45:00,
2013-01-10 05:49:00,67.4,66.2,29.99,ENE,68,2.0,-999.0,96,0.00,,,0.59,Wunderground v.1.15,2013-01-10 11:49:00,
2013-01-10 05:50:00,67.3,66.1,29.98,East,95,1.0,14.0,96,0.00,,,0.01,Wunderground v.1.15,2013-01-10 11:50:00,
2013-01-10 05:54:00,67.4,66.2,29.99,ENE,68,2.0,-999.0,96,0.00,,,0.59,Wunderground v.1.15,2013-01-10 11:54:00,
2013-01-10 05:55:00,67.3,66.1,29.98,SE,136,1.0,14.0,96,0.00,,,0.01,Wunderground v.1.15,2013-01-10 11:55:00,
2013-01-10 05:59:00,67.4,66.2,29.99,ENE,68,2.0,-999.0,96,0.00,,,0.59,Wunderground v.1.15,2013-01-10 11:59:00,
2013-01-10 06:00:00,67.4,66.2,29.98,ENE,62,2.0,14.0,96,0.00,,,0.01,Wunderground v.1.15,2013-01-10 12:00:00,
2013-01-10 06:04:00,67.4,66.2,29.99,ENE,68,2.0,-999.0,96,0.00,,,0.59,Wunderground v.1.15,2013-01-10 12:04:00,
2013-01-10 06:05:00,67.4,66.2,29.98,ESE,109,3.0,14.0,96,0.00,,,0.01,Wunderground v.1.15,2013-01-10 12:05:00,
2013-01-10 06:09:00,67.4,66.2,29.99,ENE,68,2.0,-999.0,96,0.00,,,0.59,Wunderground v.1.15,2013-01-10 12:09:00,
2013-01-10 06:10:00,67.4,66.2,29.98,ESE,113,2.0,2.0,96,0.00,,,0.01,Wunderground v.1.15,2013-01-10 12:10:00,
2013-01-10 06:14:00,67.4,66.2,29.99,ENE,68,2.0,-999.0,96,0.00,,,0.59,Wunderground v.1.15,2013-01-10 12:14:00,
2013-01-10 06:15:00,67.4,66.2,29.98,ENE,65,1.0,14.0,96,0.00,,,0.01,Wunderground v.1.15,2013-01-10 12:15:00,
2013-01-10 06:19:00,67.6,66.4,30.00,ENE,68,2.0,-999.0,96,0.00,,,0.59,Wunderground v.1.15,2013-01-10 12:19:00,
2013-01-10 06:20:00,67.5,66.3,29.99,ENE,57,1.0,1.0,96,0.00,,,0.01,Wunderground v.1.15,2013-01-10 12:20:00,
2013-01-10 06:24:00,67.6,66.4,30.00,ENE,68,2.0,-999.0,96,0.00,,,0.59,Wunderground v.1.15,2013-01-10 12:24:00,
2013-01-10 06:25:00,67.5,66.3,29.99,SE,134,1.0,5.0,96,0.00,,,0.01,Wunderground v.1.15,2013-01-10 12:25:00,
2013-01-10 06:29:00,67.6,66.4,30.00,ENE,68,2.0,-999.0,96,0.00,,,0.59,Wunderground v.1.15,2013-01-10 12:29:00,
2013-01-10 06:30:00,67.5,66.3,29.99,ESE,119,2.0,2.0,96,0.00,,,0.01,Wunderground v.1.15,2013-01-10 12:30:00,
2013-01-10 06:34:00,67.6,66.4,30.00,ENE,68,2.0,-999.0,96,0.00,,,0.59,Wunderground v.1.15,2013-01-10 12:34:00,
2013-01-10 06:35:00,67.6,66.4,30.00,NNE,17,2.0,14.0,96,0.00,,,0.01,Wunderground v.1.15,2013-01-10 12:35:00,
2013-01-10 06:39:00,67.6,66.4,30.00,ENE,68,2.0,-999.0,96,0.00,,,0.59,Wunderground v.1.15,2013-01-10 12:39:00,
2013-01-10 06:44:00,67.6,66.4,30.00,ENE,68,2.0,-999.0,96,0.00,,,0.59,Wunderground v.1.15,2013-01-10 12:44:00,
2013-01-10 06:45:00,67.6,66.4,30.00,ESE,105,2.0,14.0,96,0.00,,,0.01,Wunderground v.1.15,2013-01-10 12:45:00,
2013-01-10 06:49:00,67.9,66.4,30.00,ENE,68,2.0,-999.0,95,0.00,,,0.59,Wunderground v.1.15,2013-01-10 12:49:00,
2013-01-10 06:50:00,67.6,66.4,30.00,East,81,2.0,14.0,96,0.00,,,0.01,Wunderground v.1.15,2013-01-10 12:50:00,
2013-01-10 06:54:00,67.9,66.4,30.00,ENE,68,2.0,-999.0,95,0.00,,,0.59,Wunderground v.1.15,2013-01-10 12:54:00,
2013-01-10 06:59:00,67.9,66.4,30.00,ENE,68,2.0,-999.0,95,0.00,,,0.59,Wunderground v.1.15,2013-01-10 12:59:00,
2013-01-10 07:00:00,67.7,66.5,30.00,ENE,72,2.0,2.0,96,0.00,,,0.01,Wunderground v.1.15,2013-01-10 13:00:00,
2013-01-10 07:04:00,67.9,66.4,30.00,ENE,68,2.0,-999.0,95,0.00,,,0.59,Wunderground v.1.15,2013-01-10 13:04:00,
2013-01-10 07:05:00,67.7,66.5,30.00,NE,42,2.0,4.0,96,0.00,,,0.01,Wunderground v.1.15,2013-01-10 13:05:00,
2013-01-10 07:09:00,67.9,66.4,30.00,ENE,68,2.0,-999.0,95,0.00,,,0.59,Wunderground v.1.15,2013-01-10 13:09:00,
2013-01-10 07:10:00,67.8,66.6,30.00,ESE,116,2.0,2.0,96,0.00,,,0.01,Wunderground v.1.15,2013-01-10 13:10:00,
2013-01-10 07:14:00,67.9,66.4,30.00,ENE,68,2.0,-999.0,95,0.00,,,0.59,Wunderground v.1.15,2013-01-10 13:14:00,
2013-01-10 07:15:00,67.9,66.7,30.00,ENE,67,2.0,4.0,96,0.00,,,0.01,Wunderground v.1.15,2013-01-10 13:15:00,
2013-01-10 07:19:00,68.0,66.2,30.02,East,90,2.0,-999.0,94,0.00,,,0.59,Wunderground v.1.15,2013-01-10 13:19:00,
2013-01-10 07:20:00,67.9,66.4,30.00,NE,45,2.0,14.0,95,0.00,,,0.01,Wunderground v.1.15,2013-01-10 13:20:00,
2013-01-10 07:24:00,68.0,66.2,30.02,East,90,2.0,-999.0,94,0.00,,,0.59,Wunderground v.1.15,2013-01-10 13:24:00,
2013-01-10 07:25:00,67.9,66.4,30.00,NNE,14,3.0,14.0,95,0.00,,,0.01,Wunderground v.1.15,2013-01-10 13:25:00,
2013-01-10 07:29:00,68.0,66.2,30.02,East,90,2.0,-999.0,94,0.00,,,0.59,Wunderground v.1.15,2013-01-10 13:29:00,
2013-01-10 07:30:00,68.0,66.5,30.00,North,349,3.0,3.0,95,0.00,,,0.01,Wunderground v.1.15,2013-01-10 13:30:00,
2013-01-10 07:34:00,68.0,66.2,30.02,East,90,2.0,-999.0,94,0.00,,,0.59,Wunderground v.1.15,2013-01-10 13:34:00,
2013-01-10 07:35:00,68.0,66.5,30.00,NE,38,2.0,14.0,95,0.00,,,0.01,Wunderground v.1.15,2013-01-10 13:35:00,
2013-01-10 07:39:00,68.0,66.2,30.02,East,90,2.0,-999.0,94,0.00,,,0.59,Wunderground v.1.15,2013-01-10 13:39:00,
2013-01-10 07:40:00,68.0,66.2,30.00,ESE,115,2.0,2.0,94,0.00,,,0.01,Wunderground v.1.15,2013-01-10 13:40:00,
2013-01-10 07:44:00,68.0,66.2,30.02,East,90,2.0,-999.0,94,0.00,,,0.59,Wunderground v.1.15,2013-01-10 13:44:00,
2013-01-10 07:45:00,68.0,66.2,30.00,ENE,72,2.0,14.0,94,0.00,,,0.01,Wunderground v.1.15,2013-01-10 13:45:00,
2013-01-10 07:49:00,68.1,65.7,30.03,ESE,113,3.0,-999.0,92,0.00,,,0.59,Wunderground v.1.15,2013-01-10 13:49:00,
2013-01-10 07:50:00,68.0,66.2,30.02,ENE,57,3.0,3.0,94,0.00,,,0.01,Wunderground v.1.15,2013-01-10 13:50:00,
2013-01-10 07:54:00,68.1,65.7,30.03,ESE,113,3.0,-999.0,92,0.00,,,0.59,Wunderground v.1.15,2013-01-10 13:54:00,
2013-01-10 07:55:00,68.1,66.3,30.02,SE,142,4.0,4.0,94,0.00,,,0.01,Wunderground v.1.15,2013-01-10 13:55:00,
2013-01-10 07:59:00,68.1,65.7,30.03,ESE,113,3.0,-999.0,92,0.00,,,0.59,Wunderground v.1.15,2013-01-10 13:59:00,
2013-01-10 08:00:00,68.2,66.1,30.02,ESE,118,4.0,4.0,93,0.00,,,0.01,Wunderground v.1.15,2013-01-10 14:00:00,
2013-01-10 08:04:00,68.1,65.7,30.03,ESE,113,3.0,-999.0,92,0.00,,,0.59,Wunderground v.1.15,2013-01-10 14:04:00,
2013-01-10 08:05:00,68.2,66.1,30.02,NE,37,2.0,14.0,93,0.00,,,0.01,Wunderground v.1.15,2013-01-10 14:05:00,
2013-01-10 08:09:00,68.1,65.7,30.03,ESE,113,3.0,-999.0,92,0.00,,,0.59,Wunderground v.1.15,2013-01-10 14:09:00,
2013-01-10 08:10:00,68.1,65.7,30.02,SSE,156,3.0,14.0,92,0.00,,,0.01,Wunderground v.1.15,2013-01-10 14:10:00,
2013-01-10 08:14:00,68.1,65.7,30.03,ESE,113,3.0,-999.0,92,0.00,,,0.59,Wunderground v.1.15,2013-01-10 14:14:00,
2013-01-10 08:15:00,68.2,65.8,30.02,SE,139,2.0,14.0,92,0.00,,,0.01,Wunderground v.1.15,2013-01-10 14:15:00,
2013-01-10 08:19:00,68.1,65.4,30.05,ESE,113,2.0,-999.0,91,0.00,,,0.59,Wunderground v.1.15,2013-01-10 14:19:00,
2013-01-10 08:20:00,68.1,65.7,30.03,ENE,68,2.0,2.0,92,0.00,,,0.01,Wunderground v.1.15,2013-01-10 14:20:00,
2013-01-10 08:24:00,68.1,65.4,30.05,ESE,113,2.0,-999.0,91,0.00,,,0.59,Wunderground v.1.15,2013-01-10 14:24:00,
2013-01-10 08:25:00,68.1,65.4,30.03,SE,136,3.0,3.0,91,0.00,,,0.01,Wunderground v.1.15,2013-01-10 14:25:00,
2013-01-10 08:29:00,68.1,65.4,30.05,ESE,113,2.0,-999.0,91,0.00,,,0.59,Wunderground v.1.15,2013-01-10 14:29:00,
2013-01-10 08:30:00,68.1,65.4,30.03,ESE,121,3.0,3.0,91,0.00,,,0.01,Wunderground v.1.15,2013-01-10 14:30:00,
2013-01-10 08:34:00,68.1,65.4,30.05,ESE,113,2.0,-999.0,91,0.00,,,0.59,Wunderground v.1.15,2013-01-10 14:34:00,
2013-01-10 08:35:00,68.1,65.4,30.03,East,91,2.0,5.0,91,0.00,,,0.01,Wunderground v.1.15,2013-01-10 14:35:00,
2013-01-10 08:39:00,68.1,65.4,30.05,ESE,113,2.0,-999.0,91,0.00,,,0.59,Wunderground v.1.15,2013-01-10 14:39:00,
2013-01-10 08:40:00,68.2,65.5,30.03,SE,146,2.0,14.0,91,0.00,,,0.01,Wunderground v.1.15,2013-01-10 14:40:00,
2013-01-10 08:44:00,68.1,65.4,30.05,ESE,113,2.0,-999.0,91,0.00,,,0.59,Wunderground v.1.15,2013-01-10 14:44:00,
2013-01-10 08:45:00,68.1,65.4,30.03,ESE,117,3.0,14.0,91,0.00,,,0.01,Wunderground v.1.15,2013-01-10 14:45:00,
2013-01-10 08:49:00,67.8,65.4,30.06,ESE,113,2.0,-999.0,92,0.00,,,0.59,Wunderground v.1.15,2013-01-10 14:49:00,
2013-01-10 08:50:00,68.0,65.3,30.05,East,93,2.0,14.0,91,0.00,,,0.01,Wunderground v.1.15,2013-01-10 14:50:00,
2013-01-10 08:54:00,67.8,65.4,30.06,ESE,113,2.0,-999.0,92,0.00,,,0.59,Wunderground v.1.15,2013-01-10 14:54:00,
2013-01-10 08:55:00,68.0,65.3,30.05,East,99,2.0,14.0,91,0.00,,,0.01,Wunderground v.1.15,2013-01-10 14:55:00,
2013-01-10 08:59:00,67.8,65.4,30.06,ESE,113,2.0,-999.0,92,0.00,,,0.59,Wunderground v.1.15,2013-01-10 14:59:00,
2013-01-10 09:00:00,67.9,65.2,30.05,SW,230,1.0,14.0,91,0.00,,,0.01,Wunderground v.1.15,2013-01-10 15:00:00,
2013-01-10 09:04:00,67.8,65.4,30.06,ESE,113,2.0,-999.0,92,0.00,,,0.59,Wunderground v.1.15,2013-01-10 15:04:00,
2013-01-10 09:05:00,67.9,65.2,30.06,ESE,117,2.0,14.0,91,0.00,,,0.01,Wunderground v.1.15,2013-01-10 15:05:00,
2013-01-10 09:09:00,67.8,65.4,30.06,ESE,113,2.0,-999.0,92,0.00,,,0.59,Wunderground v.1.15,2013-01-10 15:09:00,
2013-01-10 09:10:00,67.9,65.2,30.06,SE,140,2.0,14.0,91,0.00,,,0.01,Wunderground v.1.15,2013-01-10 15:10:00,
2013-01-10 09:14:00,67.8,65.4,30.06,ESE,113,2.0,-999.0,92,0.00,,,0.59,Wunderground v.1.15,2013-01-10 15:14:00,
2013-01-10 09:15:00,67.8,65.1,30.06,SE,126,3.0,14.0,91,0.00,,,0.01,Wunderground v.1.15,2013-01-10 15:15:00,
2013-01-10 09:19:00,67.3,65.2,30.05,ESE,113,2.0,-999.0,93,0.01,,,0.59,Wunderground v.1.15,2013-01-10 15:19:00,
2013-01-10 09:20:00,67.8,65.4,30.06,SE,140,3.0,3.0,92,0.00,,,0.01,Wunderground v.1.15,2013-01-10 15:20:00,
2013-01-10 09:24:00,67.3,65.2,30.05,ESE,113,2.0,-999.0,93,0.01,,,0.59,Wunderground v.1.15,2013-01-10 15:24:00,
2013-01-10 09:25:00,67.8,65.4,30.06,SE,128,2.0,5.0,92,0.00,,,0.01,Wunderground v.1.15,2013-01-10 15:25:00,
2013-01-10 09:29:00,67.3,65.2,30.05,ESE,113,2.0,-999.0,93,0.01,,,0.59,Wunderground v.1.15,2013-01-10 15:29:00,
2013-01-10 09:34:00,67.3,65.2,30.05,ESE,113,2.0,-999.0,93,0.01,,,0.59,Wunderground v.1.15,2013-01-10 15:34:00,
2013-01-10 09:35:00,67.6,65.2,30.05,East,97,2.0,14.0,92,0.00,,,0.01,Wunderground v.1.15,2013-01-10 15:35:00,
2013-01-10 09:39:00,67.3,65.2,30.05,ESE,113,2.0,-999.0,93,0.01,,,0.59,Wunderground v.1.15,2013-01-10 15:39:00,
2013-01-10 09:40:00,67.5,65.4,30.05,SE,125,2.0,2.0,93,0.00,,,0.01,Wunderground v.1.15,2013-01-10 15:40:00,
2013-01-10 09:44:00,67.3,65.2,30.05,ESE,113,2.0,-999.0,93,0.01,,,0.59,Wunderground v.1.15,2013-01-10 15:44:00,
2013-01-10 09:45:00,67.4,65.3,30.05,SSE,156,1.0,14.0,93,0.00,,,0.02,Wunderground v.1.15,2013-01-10 15:45:00,
2013-01-10 09:49:00,67.0,65.5,30.03,East,90,2.0,-999.0,95,0.15,,,0.59,Wunderground v.1.15,2013-01-10 15:49:00,
2013-01-10 09:50:00,67.3,65.2,30.05,East,88,1.0,14.0,93,0.00,,,0.02,Wunderground v.1.15,2013-01-10 15:50:00,
2013-01-10 09:54:00,67.0,65.5,30.03,East,90,2.0,-999.0,95,0.15,,,0.59,Wunderground v.1.15,2013-01-10 15:54:00,
2013-01-10 09:55:00,67.2,65.4,30.05,SSE,161,2.0,14.0,94,0.00,,,0.02,Wunderground v.1.15,2013-01-10 15:55:00,
2013-01-10 09:59:00,67.0,65.5,30.03,East,90,2.0,-999.0,95,0.15,,,0.59,Wunderground v.1.15,2013-01-10 15:59:00,
2013-01-10 10:00:00,67.2,65.4,30.05,East,91,2.0,14.0,94,0.24,,,0.04,Wunderground v.1.15,2013-01-10 16:00:00,
2013-01-10 10:04:00,67.0,65.5,30.03,East,90,2.0,-999.0,95,0.15,,,0.59,Wunderground v.1.15,2013-01-10 16:04:00,
2013-01-10 10:09:00,67.0,65.5,30.03,East,90,2.0,-999.0,95,0.15,,,0.59,Wunderground v.1.15,2013-01-10 16:09:00,
2013-01-10 10:14:00,67.0,65.5,30.03,East,90,2.0,-999.0,95,0.15,,,0.59,Wunderground v.1.15,2013-01-10 16:14:00,
2013-01-10 10:19:00,66.7,65.2,30.02,ESE,113,4.0,-999.0,95,0.49,,,0.59,Wunderground v.1.15,2013-01-10 16:19:00,
2013-01-10 10:24:00,66.7,65.2,30.02,ESE,113,4.0,-999.0,95,0.49,,,0.59,Wunderground v.1.15,2013-01-10 16:24:00,
2013-01-10 10:29:00,66.7,65.2,30.02,ESE,113,4.0,-999.0,95,0.49,,,0.59,Wunderground v.1.15,2013-01-10 16:29:00,
2013-01-10 10:34:00,66.7,65.2,30.02,ESE,113,4.0,-999.0,95,0.49,,,0.59,Wunderground v.1.15,2013-01-10 16:34:00,
2013-01-10 10:39:00,66.7,65.2,30.02,ESE,113,4.0,-999.0,95,0.49,,,0.59,Wunderground v.1.15,2013-01-10 16:39:00,
2013-01-10 10:44:00,66.7,65.2,30.02,ESE,113,4.0,-999.0,95,0.49,,,0.59,Wunderground v.1.15,2013-01-10 16:44:00,
2013-01-10 10:49:00,64.7,62.9,30.05,SE,135,2.0,-999.0,94,0.43,,,0.59,Wunderground v.1.15,2013-01-10 16:49:00,
2013-01-10 10:54:00,64.7,62.9,30.05,SE,135,2.0,-999.0,94,0.43,,,0.59,Wunderground v.1.15,2013-01-10 16:54:00,
2013-01-10 10:59:00,64.7,62.9,30.05,SE,135,2.0,-999.0,94,0.43,,,0.59,Wunderground v.1.15,2013-01-10 16:59:00,
2013-01-10 11:24:00,64.5,62.7,30.05,East,100,1.0,3.0,94,0.15,,,0.61,Wunderground v.1.15,2013-01-10 17:24:00,
2013-01-10 11:57:00,63.5,62.0,30.04,ESE,116,2.0,3.0,95,0.26,,,0.71,Wunderground v.1.15,2013-01-10 17:57:00,
2013-01-10 12:05:00,63.3,61.8,30.03,ENE,57,1.0,2.0,95,0.21,,,0.73,Wunderground v.1.15,2013-01-10 18:05:00,
2013-01-10 12:10:00,63.2,61.7,30.03,East,82,1.0,2.0,95,0.25,,,0.75,Wunderground v.1.15,2013-01-10 18:10:00,
2013-01-10 12:15:00,63.1,61.6,30.03,SSE,157,1.0,2.0,95,0.16,,,0.77,Wunderground v.1.15,2013-01-10 18:15:00,
2013-01-10 12:20:00,63.1,61.6,30.03,SE,143,1.0,2.0,95,0.16,,,0.78,Wunderground v.1.15,2013-01-10 18:20:00,
2013-01-10 12:25:00,63.1,61.9,30.03,NE,52,1.0,3.0,96,0.14,,,0.79,Wunderground v.1.15,2013-01-10 18:25:00,
2013-01-10 12:35:00,63.1,61.9,30.03,East,89,0.0,2.0,96,0.10,,,0.80,Wunderground v.1.15,2013-01-10 18:35:00,
2013-01-10 12:40:00,63.0,61.8,30.03,ENE,60,0.0,9.0,96,0.08,,,0.81,Wunderground v.1.15,2013-01-10 18:40:00,
2013-01-10 12:45:00,63.1,61.9,30.03,ENE,65,1.0,9.0,96,0.19,,,0.83,Wunderground v.1.15,2013-01-10 18:45:00,
2013-01-10 12:50:00,63.1,61.9,30.01,NNW,348,1.0,1.0,96,0.23,,,0.85,Wunderground v.1.15,2013-01-10 18:50:00,
2013-01-10 12:55:00,63.0,61.8,30.01,North,349,1.0,9.0,96,0.27,,,0.87,Wunderground v.1.15,2013-01-10 18:55:00,
2013-01-10 13:05:00,63.0,61.8,29.99,North,350,0.0,9.0,96,0.17,,,0.90,Wunderground v.1.15,2013-01-10 19:05:00,
2013-01-10 13:10:00,63.0,61.8,29.99,NE,34,1.0,1.0,96,0.16,,,0.91,Wunderground v.1.15,2013-01-10 19:10:00,
2013-01-10 13:15:00,63.0,61.8,29.99,ENE,61,2.0,2.0,96,0.12,,,0.92,Wunderground v.1.15,2013-01-10 19:15:00,
2013-01-10 13:20:00,63.0,61.8,29.98,ENE,63,1.0,1.0,96,0.08,,,0.92,Wunderground v.1.15,2013-01-10 19:20:00,
2013-01-10 13:25:00,63.0,61.8,29.98,East,79,1.0,9.0,96,0.08,,,0.93,Wunderground v.1.15,2013-01-10 19:25:00,
2013-01-10 13:35:00,63.0,61.8,29.99,NE,49,1.0,9.0,96,0.11,,,0.95,Wunderground v.1.15,2013-01-10 19:35:00,
2013-01-10 13:40:00,63.0,61.8,29.99,NE,46,1.0,9.0,96,0.15,,,0.97,Wunderground v.1.15,2013-01-10 19:40:00,
2013-01-10 13:45:00,63.0,61.8,29.99,NE,48,2.0,9.0,96,0.14,,,0.98,Wunderground v.1.15,2013-01-10 19:45:00,
2013-01-10 13:55:00,63.0,61.8,29.99,NE,47,1.0,9.0,96,0.12,,,1.00,Wunderground v.1.15,2013-01-10 19:55:00,
2013-01-10 14:00:00,62.9,61.7,29.99,NE,44,2.0,2.0,96,0.16,,,1.02,Wunderground v.1.15,2013-01-10 20:00:00,
2013-01-10 14:05:00,62.9,61.7,29.95,NE,36,3.0,4.0,96,0.13,,,1.03,Wunderground v.1.15,2013-01-10 20:05:00,
2013-01-10 14:10:00,62.9,61.7,29.95,ENE,65,3.0,3.0,96,0.11,,,1.03,Wunderground v.1.15,2013-01-10 20:10:00,
2013-01-10 14:15:00,62.9,61.7,29.95,ESE,111,2.0,4.0,96,0.06,,,1.03,Wunderground v.1.15,2013-01-10 20:15:00,
2013-01-10 14:25:00,62.7,61.5,29.93,NE,41,3.0,9.0,96,0.04,,,1.04,Wunderground v.1.15,2013-01-10 20:25:00,
2013-01-10 14:30:00,62.7,61.5,29.93,East,99,3.0,9.0,96,0.04,,,1.04,Wunderground v.1.15,2013-01-10 20:30:00,
2013-01-10 14:40:00,62.5,61.3,29.92,NE,36,4.0,4.0,96,0.00,,,1.04,Wunderground v.1.15,2013-01-10 20:40:00,
2013-01-10 14:45:00,62.5,61.3,29.92,NE,35,4.0,9.0,96,0.00,,,1.04,Wunderground v.1.15,2013-01-10 20:45:00,
2013-01-10 14:50:00,62.5,61.3,29.88,East,94,4.0,9.0,96,0.00,,,1.04,Wunderground v.1.15,2013-01-10 20:50:00,
2013-01-10 14:55:00,62.5,61.3,29.88,NE,40,3.0,9.0,96,0.00,,,1.04,Wunderground v.1.15,2013-01-10 20:55:00,
2013-01-10 15:00:00,62.5,61.3,29.88,ENE,70,2.0,9.0,96,0.00,,,1.04,Wunderground v.1.15,2013-01-10 21:00:00,
2013-01-10 15:05:00,62.5,61.3,29.91,ESE,123,1.0,9.0,96,0.00,,,1.04,Wunderground v.1.15,2013-01-10 21:05:00,
2013-01-10 15:10:00,62.4,61.2,29.91,SE,129,1.0,2.0,96,0.00,,,1.04,Wunderground v.1.15,2013-01-10 21:10:00,
2013-01-10 15:15:00,62.4,61.2,29.91,NE,54,2.0,2.0,96,0.00,,,1.04,Wunderground v.1.15,2013-01-10 21:15:00,
2013-01-10 15:20:00,62.3,61.1,29.89,NE,41,2.0,2.0,96,0.00,,,1.04,Wunderground v.1.15,2013-01-10 21:20:00,
2013-01-10 15:30:00,62.3,61.1,29.89,ENE,61,0.0,2.0,96,0.00,,,1.04,Wunderground v.1.15,2013-01-10 21:30:00,
2013-01-10 15:35:00,62.3,61.1,29.92,SSW,202,1.0,3.0,96,0.00,,,1.04,Wunderground v.1.15,2013-01-10 21:35:00,
2013-01-10 15:40:00,62.3,61.1,29.92,South,184,3.0,3.0,96,0.00,,,1.04,Wunderground v.1.15,2013-01-10 21:40:00,
2013-01-10 15:45:00,62.3,61.1,29.92,South,182,2.0,12.0,96,0.00,,,1.04,Wunderground v.1.15,2013-01-10 21:45:00,
2013-01-10 15:50:00,62.3,61.1,29.91,East,95,2.0,2.0,96,0.00,,,1.04,Wunderground v.1.15,2013-01-10 21:50:00,
2013-01-10 15:55:00,62.3,61.1,29.91,SW,220,1.0,4.0,96,0.00,,,1.04,Wunderground v.1.15,2013-01-10 21:55:00,
2013-01-10 16:00:00,62.3,61.1,29.91,South,186,2.0,12.0,96,0.00,,,1.04,Wunderground v.1.15,2013-01-10 22:00:00,
2013-01-10 16:05:00,62.3,61.1,29.93,South,180,1.0,12.0,96,0.00,,,1.04,Wunderground v.1.15,2013-01-10 22:05:00,
2013-01-10 16:10:00,62.3,61.1,29.93,SSW,213,1.0,1.0,96,0.00,,,1.04,Wunderground v.1.15,2013-01-10 22:10:00,
2013-01-10 16:15:00,62.3,61.1,29.93,ESE,123,2.0,2.0,96,0.00,,,1.04,Wunderground v.1.15,2013-01-10 22:15:00,
2013-01-10 16:20:00,62.4,61.2,29.93,SE,134,1.0,1.0,96,0.00,,,1.04,Wunderground v.1.15,2013-01-10 22:20:00,
2013-01-10 16:30:00,62.3,61.1,29.93,ESE,122,0.0,12.0,96,0.00,,,1.04,Wunderground v.1.15,2013-01-10 22:30:00,
2013-01-10 16:35:00,62.3,61.1,29.93,ESE,118,0.0,12.0,96,0.00,,,1.04,Wunderground v.1.15,2013-01-10 22:35:00,
2013-01-10 16:40:00,62.2,61.0,29.93,ESE,122,0.0,12.0,96,0.00,,,1.04,Wunderground v.1.15,2013-01-10 22:40:00,
2013-01-10 16:45:00,62.2,61.0,29.93,East,98,0.0,12.0,96,0.00,,,1.04,Wunderground v.1.15,2013-01-10 22:45:00,
2013-01-10 16:50:00,62.1,60.9,29.93,East,101,0.0,12.0,96,0.00,,,1.04,Wunderground v.1.15,2013-01-10 22:50:00,
2013-01-10 16:55:00,62.1,60.9,29.93,East,101,0.0,12.0,96,0.00,,,1.04,Wunderground v.1.15,2013-01-10 22:55:00,
2013-01-10 17:00:00,62.0,60.8,29.93,East,101,0.0,12.0,96,0.00,,,1.04,Wunderground v.1.15,2013-01-10 23:00:00,
2013-01-10 17:05:00,62.0,60.8,29.92,East,101,0.0,12.0,96,0.00,,,1.04,Wunderground v.1.15,2013-01-10 23:05:00,
2013-01-10 17:10:00,61.9,60.7,29.92,ESE,106,0.0,12.0,96,0.00,,,1.04,Wunderground v.1.15,2013-01-10 23:10:00,
2013-01-10 17:15:00,61.8,60.6,29.92,ESE,106,0.0,12.0,96,0.00,,,1.04,Wunderground v.1.15,2013-01-10 23:15:00,
2013-01-10 17:20:00,61.8,60.6,29.92,ESE,106,0.0,12.0,96,0.00,,,1.04,Wunderground v.1.15,2013-01-10 23:20:00,
2013-01-10 17:25:00,61.6,60.4,29.92,ESE,106,0.0,12.0,96,0.00,,,1.04,Wunderground v.1.15,2013-01-10 23:25:00,
2013-01-10 17:30:00,61.5,60.3,29.92,ESE,106,0.0,12.0,96,0.00,,,1.04,Wunderground v.1.15,2013-01-10 23:30:00,
2013-01-10 17:35:00,61.4,60.2,29.90,ESE,106,0.0,12.0,96,0.00,,,1.04,Wunderground v.1.15,2013-01-10 23:35:00,
2013-01-10 17:40:00,61.4,60.2,29.90,ESE,106,0.0,12.0,96,0.00,,,1.04,Wunderground v.1.15,2013-01-10 23:40:00,
2013-01-10 17:45:00,61.3,60.2,29.90,ESE,106,0.0,12.0,96,0.00,,,1.04,Wunderground v.1.15,2013-01-10 23:45:00,
2013-01-10 17:50:00,61.3,60.2,29.89,ESE,106,0.0,12.0,96,0.00,,,1.04,Wunderground v.1.15,2013-01-10 23:50:00,
2013-01-10 17:55:00,61.4,60.2,29.89,ESE,111,0.0,12.0,96,0.00,,,1.04,Wunderground v.1.15,2013-01-10 23:55:00,
2013-01-10 18:00:00,61.4,60.2,29.89,ESE,111,0.0,12.0,96,0.00,,,1.04,Wunderground v.1.15,2013-01-11 00:00:00,
2013-01-10 18:05:00,61.4,60.2,29.90,ESE,111,0.0,12.0,96,0.00,,,1.04,Wunderground v.1.15,2013-01-11 00:05:00,
2013-01-10 18:10:00,61.3,60.2,29.90,ESE,111,0.0,12.0,96,0.00,,,1.04,Wunderground v.1.15,2013-01-11 00:10:00,
2013-01-10 18:15:00,61.3,60.2,29.90,ESE,111,0.0,12.0,96,0.00,,,1.04,Wunderground v.1.15,2013-01-11 00:15:00,
2013-01-10 18:20:00,61.3,60.2,29.91,ESE,111,0.0,12.0,96,0.00,,,1.04,Wunderground v.1.15,2013-01-11 00:20:00,
2013-01-10 18:25:00,61.3,60.2,29.91,ESE,111,0.0,12.0,96,0.00,,,1.04,Wunderground v.1.15,2013-01-11 00:25:00,
2013-01-10 18:30:00,61.3,60.2,29.91,ESE,111,0.0,12.0,96,0.00,,,1.04,Wunderground v.1.15,2013-01-11 00:30:00,
2013-01-10 18:40:00,61.3,60.2,29.90,ESE,111,0.0,12.0,96,0.00,,,1.04,Wunderground v.1.15,2013-01-11 00:40:00,
2013-01-10 18:45:00,61.3,60.2,29.90,ESE,111,0.0,12.0,96,0.00,,,1.04,Wunderground v.1.15,2013-01-11 00:45:00,
2013-01-10 18:50:00,61.2,60.1,29.89,ESE,111,0.0,12.0,96,0.00,,,1.04,Wunderground v.1.15,2013-01-11 00:50:00,
2013-01-10 18:55:00,61.2,60.1,29.89,SSE,167,0.0,12.0,96,0.00,,,1.04,Wunderground v.1.15,2013-01-11 00:55:00,
2013-01-10 19:00:00,61.2,60.1,29.89,SSE,168,0.0,12.0,96,0.00,,,1.04,Wunderground v.1.15,2013-01-11 01:00:00,
2013-01-10 19:05:00,61.2,60.1,29.90,SSE,159,0.0,12.0,96,0.00,,,1.04,Wunderground v.1.15,2013-01-11 01:05:00,
2013-01-10 19:10:00,61.2,60.1,29.90,SSE,150,1.0,1.0,96,0.00,,,1.04,Wunderground v.1.15,2013-01-11 01:10:00,
2013-01-10 19:15:00,61.2,60.1,29.90,SE,132,1.0,12.0,96,0.00,,,1.04,Wunderground v.1.15,2013-01-11 01:15:00,
2013-01-10 19:20:00,61.2,60.1,29.90,SE,130,0.0,12.0,96,0.00,,,1.04,Wunderground v.1.15,2013-01-11 01:20:00,
2013-01-10 19:25:00,61.2,60.1,29.90,SE,136,1.0,12.0,96,0.00,,,1.04,Wunderground v.1.15,2013-01-11 01:25:00,
2013-01-10 19:30:00,61.2,60.1,29.90,SE,136,1.0,12.0,96,0.00,,,1.04,Wunderground v.1.15,2013-01-11 01:30:00,
2013-01-10 19:35:00,61.2,60.1,29.91,SE,140,1.0,12.0,96,0.00,,,1.04,Wunderground v.1.15,2013-01-11 01:35:00,
2013-01-10 19:40:00,61.2,60.3,29.91,SE,133,1.0,1.0,97,0.00,,,1.04,Wunderground v.1.15,2013-01-11 01:40:00,
2013-01-10 19:45:00,61.2,60.3,29.91,SE,125,1.0,3.0,97,0.00,,,1.04,Wunderground v.1.15,2013-01-11 01:45:00,
2013-01-10 19:50:00,61.2,60.3,29.91,SE,132,1.0,1.0,97,0.00,,,1.04,Wunderground v.1.15,2013-01-11 01:50:00,
2013-01-10 20:00:00,61.2,60.3,29.91,SE,138,1.0,12.0,97,0.00,,,1.04,Wunderground v.1.15,2013-01-11 02:00:00,
2013-01-10 20:05:00,61.1,60.0,29.92,SW,218,2.0,12.0,96,0.00,,,1.04,Wunderground v.1.15,2013-01-11 02:05:00,
2013-01-10 20:10:00,61.1,60.0,29.92,SW,218,1.0,1.0,96,0.00,,,1.04,Wunderground v.1.15,2013-01-11 02:10:00,
2013-01-10 20:15:00,61.1,60.0,29.92,SSW,207,1.0,2.0,96,0.00,,,1.04,Wunderground v.1.15,2013-01-11 02:15:00,
2013-01-10 20:20:00,61.1,60.0,29.93,SW,218,1.0,12.0,96,0.00,,,1.04,Wunderground v.1.15,2013-01-11 02:20:00,
2013-01-10 20:25:00,61.1,60.0,29.93,South,173,1.0,12.0,96,0.00,,,1.04,Wunderground v.1.15,2013-01-11 02:25:00,
2013-01-10 20:30:00,61.2,60.3,29.93,SE,146,2.0,2.0,97,0.00,,,1.04,Wunderground v.1.15,2013-01-11 02:30:00,
2013-01-10 20:35:00,61.2,60.3,29.94,South,169,2.0,12.0,97,0.00,,,1.04,Wunderground v.1.15,2013-01-11 02:35:00,
2013-01-10 20:40:00,61.2,60.3,29.94,SSE,162,2.0,12.0,97,0.00,,,1.04,Wunderground v.1.15,2013-01-11 02:40:00,
2013-01-10 20:50:00,61.3,60.4,29.94,SSE,148,2.0,12.0,97,0.00,,,1.04,Wunderground v.1.15,2013-01-11 02:50:00,
2013-01-10 20:55:00,61.2,60.3,29.94,SSE,149,2.0,12.0,97,0.00,,,1.04,Wunderground v.1.15,2013-01-11 02:55:00,
2013-01-10 21:05:00,61.3,60.4,29.95,SSE,157,2.0,12.0,97,0.00,,,1.04,Wunderground v.1.15,2013-01-11 03:05:00,
2013-01-10 21:10:00,61.3,60.4,29.95,SSE,167,1.0,12.0,97,0.00,,,1.04,Wunderground v.1.15,2013-01-11 03:10:00,
2013-01-10 21:15:00,61.3,60.4,29.95,South,169,2.0,12.0,97,0.00,,,1.04,Wunderground v.1.15,2013-01-11 03:15:00,
2013-01-10 21:20:00,61.4,60.5,29.96,South,180,2.0,2.0,97,0.00,,,1.04,Wunderground v.1.15,2013-01-11 03:20:00,
2013-01-10 21:30:00,61.4,60.5,29.96,South,186,2.0,2.0,97,0.00,,,1.04,Wunderground v.1.15,2013-01-11 03:30:00,
2013-01-10 21:35:00,61.5,60.6,29.96,SE,144,2.0,12.0,97,0.00,,,1.04,Wunderground v.1.15,2013-01-11 03:35:00,
2013-01-10 21:40:00,61.5,60.6,29.96,South,173,2.0,2.0,97,0.00,,,1.04,Wunderground v.1.15,2013-01-11 03:40:00,
2013-01-10 21:45:00,61.5,60.6,29.96,South,172,2.0,3.0,97,0.00,,,1.04,Wunderground v.1.15,2013-01-11 03:45:00,
2013-01-10 21:50:00,61.5,60.6,29.96,ESE,123,2.0,12.0,97,0.00,,,1.04,Wunderground v.1.15,2013-01-11 03:50:00,
2013-01-10 21:55:00,61.5,60.6,29.96,ESE,122,2.0,12.0,97,0.00,,,1.04,Wunderground v.1.15,2013-01-11 03:55:00,
2013-01-10 22:00:00,61.5,60.6,29.96,SSE,159,2.0,2.0,97,0.00,,,1.04,Wunderground v.1.15,2013-01-11 04:00:00,
2013-01-10 22:05:00,61.5,60.6,29.96,SSW,196,2.0,12.0,97,0.00,,,1.04,Wunderground v.1.15,2013-01-11 04:05:00,
2013-01-10 22:10:00,61.5,60.6,29.96,ESE,121,2.0,2.0,97,0.00,,,1.04,Wunderground v.1.15,2013-01-11 04:10:00,
2013-01-10 22:15:00,61.5,60.6,29.96,South,180,1.0,12.0,97,0.00,,,1.04,Wunderground v.1.15,2013-01-11 04:15:00,
2013-01-10 22:20:00,61.6,60.7,29.96,South,182,2.0,12.0,97,0.00,,,1.04,Wunderground v.1.15,2013-01-11 04:20:00,
2013-01-10 22:25:00,61.6,60.7,29.96,South,173,3.0,12.0,97,0.00,,,1.04,Wunderground v.1.15,2013-01-11 04:25:00,
2013-01-10 22:30:00,61.6,60.7,29.96,SW,215,3.0,3.0,97,0.00,,,1.04,Wunderground v.1.15,2013-01-11 04:30:00,
2013-01-10 22:35:00,61.6,60.7,29.96,SE,125,3.0,12.0,97,0.00,,,1.04,Wunderground v.1.15,2013-01-11 04:35:00,
2013-01-10 22:40:00,61.6,60.7,29.96,ESE,121,2.0,12.0,97,0.00,,,1.04,Wunderground v.1.15,2013-01-11 04:40:00,
2013-01-10 22:45:00,61.6,60.7,29.96,SSE,161,2.0,12.0,97,0.00,,,1.04,Wunderground v.1.15,2013-01-11 04:45:00,
2013-01-10 22:50:00,61.6,60.7,29.96,SE,140,2.0,2.0,97,0.00,,,1.04,Wunderground v.1.15,2013-01-11 04:50:00,
2013-01-10 22:55:00,61.6,60.4,29.96,SE,145,2.0,3.0,96,0.00,,,1.04,Wunderground v.1.15,2013-01-11 04:55:00,
2013-01-10 23:05:00,61.6,60.4,29.96,SE,136,3.0,5.0,96,0.00,,,1.04,Wunderground v.1.15,2013-01-11 05:05:00,
2013-01-10 23:10:00,61.6,60.4,29.96,SSE,168,3.0,3.0,96,0.00,,,1.04,Wunderground v.1.15,2013-01-11 05:10:00,
2013-01-10 23:15:00,61.6,60.4,29.96,SSE,154,2.0,12.0,96,0.00,,,1.04,Wunderground v.1.15,2013-01-11 05:15:00,
2013-01-10 23:20:00,61.6,60.4,29.97,SSE,167,2.0,12.0,96,0.00,,,1.04,Wunderground v.1.15,2013-01-11 05:20:00,
2013-01-10 23:25:00,61.5,60.3,29.97,SE,142,2.0,12.0,96,0.00,,,1.04,Wunderground v.1.15,2013-01-11 05:25:00,
2013-01-10 23:30:00,61.5,60.3,29.97,South,175,1.0,12.0,96,0.00,,,1.04,Wunderground v.1.15,2013-01-11 05:30:00,
2013-01-10 23:35:00,61.5,60.3,29.97,SSE,165,1.0,12.0,96,0.00,,,1.04,Wunderground v.1.15,2013-01-11 05:35:00,
2013-01-10 23:40:00,61.5,60.3,29.97,SE,125,1.0,1.0,96,0.00,,,1.04,Wunderground v.1.15,2013-01-11 05:40:00,
2013-01-10 23:45:00,61.5,60.3,29.97,ESE,116,2.0,2.0,96,0.00,,,1.04,Wunderground v.1.15,2013-01-11 05:45:00,
2013-01-10 23:50:00,61.5,60.3,29.96,South,183,1.0,1.0,96,0.00,,,1.04,Wunderground v.1.15,2013-01-11 05:50:00,
2013-01-10 23:55:00,61.6,60.4,29.96,ESE,108,2.0,2.0,96,0.00,,,1.05,Wunderground v.1.15,2013-01-11 05:55:00,